Time;durP1;ratioP1;P1;durP2;ratioP2;P2;SDS_P1;SDS_P2;PMS_P1;PMS_P2;Temp;Humidity;BMP_temperature;BMP_pressure;BME280_temperature;BME280_humidity;BME280_pressure;Samples;Min_cycle;Max_cycle;Signal;HPM_P1;HPM_P2
2023/07/12 00:01:52;;;;;;;2.92;2.65;;;;;;;;;;5049576;28;20234;-54
2023/07/12 00:04:18;;;;;;;3.55;2.90;;;;;;;;;;5053724;28;20625;-54
2023/07/12 00:06:43;;;;;;;2.95;2.67;;;;;;;;;;5053823;28;20175;-54
2023/07/12 00:09:12;;;;;;;3.28;2.97;;;;;;;;;;5043945;28;20535;-54
2023/07/12 00:11:38;;;;;;;4.07;3.13;;;;;;;;;;5046180;28;20523;-54
2023/07/12 00:14:04;;;;;;;4.35;3.30;;;;;;;;;;5051182;28;20186;-54
2023/07/12 00:16:33;;;;;;;3.60;3.30;;;;;;;;;;5057636;28;20209;-54
2023/07/12 00:18:59;;;;;;;3.20;2.90;;;;;;;;;;5056835;28;20190;-54
2023/07/12 00:21:26;;;;;;;3.40;3.10;;;;;;;;;;5056289;28;20592;-54
2023/07/12 00:23:53;;;;;;;3.80;2.90;;;;;;;;;;5052433;28;20215;-54
2023/07/12 00:26:20;;;;;;;3.17;2.78;;;;;;;;;;5046831;28;20582;-54
2023/07/12 00:28:46;;;;;;;3.42;3.13;;;;;;;;;;5051329;28;20183;-54
2023/07/12 00:31:12;;;;;;;3.90;3.50;;;;;;;;;;5056673;28;20228;-54
2023/07/12 00:33:38;;;;;;;4.30;3.30;;;;;;;;;;5049416;28;20179;-54
2023/07/12 00:36:05;;;;;;;3.55;3.17;;;;;;;;;;5055920;28;20188;-54
2023/07/12 00:38:32;;;;;;;3.47;3.17;;;;;;;;;;5055348;28;20195;-54
2023/07/12 00:41:03;;;;;;;4.18;3.30;;;;;;;;;;5054216;28;20190;-54
2023/07/12 00:43:31;;;;;;;3.95;3.40;;;;;;;;;;5053264;28;20297;-54
2023/07/12 00:46:00;;;;;;;3.75;3.33;;;;;;;;;;5056827;28;20175;-54
2023/07/12 00:48:26;;;;;;;4.03;3.25;;;;;;;;;;5047469;28;20175;-54
2023/07/12 00:50:52;;;;;;;3.17;2.80;;;;;;;;;;5050353;28;20186;-54
2023/07/12 00:53:19;;;;;;;3.30;2.90;;;;;;;;;;5059927;28;20191;-54
2023/07/12 00:56:00;;;;;;;3.90;3.42;;;;;;;;;;5056772;28;20175;-54
2023/07/12 00:58:30;;;;;;;3.42;3.13;;;;;;;;;;5051215;28;20226;-54
2023/07/12 01:00:57;;;;;;;3.13;2.72;;;;;;;;;;5051284;28;20210;-54
2023/07/12 01:03:23;;;;;;;3.22;2.92;;;;;;;;;;5055098;28;20187;-55
2023/07/12 01:05:50;;;;;;;4.40;3.17;;;;;;;;;;5056589;28;20179;-54
2023/07/12 01:08:16;;;;;;;3.22;2.92;;;;;;;;;;5047219;28;20186;-54
2023/07/12 01:10:42;;;;;;;4.22;2.95;;;;;;;;;;5053132;28;20455;-54
2023/07/12 01:13:09;;;;;;;4.65;3.58;;;;;;;;;;5056373;28;20190;-54
2023/07/12 01:15:36;;;;;;;4.53;3.30;;;;;;;;;;5050918;28;20554;-54
2023/07/12 01:18:02;;;;;;;4.95;3.28;;;;;;;;;;5055580;28;20183;-55
2023/07/12 01:20:28;;;;;;;3.47;2.50;;;;;;;;;;5056281;28;20178;-54
2023/07/12 01:22:55;;;;;;;3.60;3.08;;;;;;;;;;5070851;28;20584;-54
2023/07/12 01:25:41;;;;;;;3.58;2.85;;;;;;;;;;5075822;28;20245;-54
2023/07/12 01:28:07;;;;;;;3.47;3.03;;;;;;;;;;5059089;28;20519;-55
2023/07/12 01:30:33;;;;;;;3.13;2.80;;;;;;;;;;5056060;28;20172;-54
2023/07/12 01:32:59;;;;;;;2.63;2.42;;;;;;;;;;5048665;28;20258;-54
2023/07/12 01:35:25;;;;;;;3.20;2.80;;;;;;;;;;5055612;28;20606;-55
2023/07/12 01:37:51;;;;;;;4.53;3.08;;;;;;;;;;5053274;28;20267;-54
2023/07/12 01:40:17;;;;;;;3.30;2.40;;;;;;;;;;5050756;28;20590;-54
2023/07/12 01:42:44;;;;;;;2.85;2.60;;;;;;;;;;5054906;28;20810;-54
2023/07/12 01:45:10;;;;;;;3.08;2.78;;;;;;;;;;5042261;28;20534;-54
2023/07/12 01:47:36;;;;;;;4.68;2.85;;;;;;;;;;5054603;28;20202;-54
2023/07/12 01:50:02;;;;;;;2.90;2.60;;;;;;;;;;5053134;28;20453;-55
2023/07/12 01:52:28;;;;;;;2.85;2.53;;;;;;;;;;5050306;28;20179;-55
2023/07/12 01:54:54;;;;;;;3.63;2.50;;;;;;;;;;5054466;28;20221;-54
2023/07/12 01:57:20;;;;;;;3.80;2.40;;;;;;;;;;5053464;28;20234;-54
2023/07/12 01:59:46;;;;;;;2.70;2.33;;;;;;;;;;5055032;28;20183;-54
2023/07/12 02:02:12;;;;;;;2.65;2.42;;;;;;;;;;5054877;28;20554;-54
2023/07/12 02:04:38;;;;;;;2.35;2.13;;;;;;;;;;5051345;28;20200;-54
2023/07/12 02:07:04;;;;;;;2.60;2.40;;;;;;;;;;5037052;28;20452;-54
2023/07/12 02:09:35;;;;;;;2.55;2.35;;;;;;;;;;5054010;28;20225;-55
2023/07/12 02:12:01;;;;;;;2.67;2.42;;;;;;;;;;5052906;28;20178;-55
2023/07/12 02:14:27;;;;;;;2.80;2.40;;;;;;;;;;5048704;28;20189;-54
2023/07/12 02:16:53;;;;;;;2.33;2.13;;;;;;;;;;5049947;28;20191;-54
2023/07/12 02:19:19;;;;;;;2.50;2.30;;;;;;;;;;5045589;28;20184;-54
2023/07/12 02:21:45;;;;;;;3.50;2.30;;;;;;;;;;5050627;28;20198;-55
2023/07/12 02:24:11;;;;;;;2.30;2.10;;;;;;;;;;5052727;28;20257;-55
2023/07/12 02:26:39;;;;;;;3.45;2.58;;;;;;;;;;5054434;28;20191;-54
2023/07/12 02:29:05;;;;;;;2.40;2.20;;;;;;;;;;5054621;28;20183;-54
2023/07/12 02:31:32;;;;;;;2.13;1.92;;;;;;;;;;5054133;28;20179;-54
2023/07/12 02:33:58;;;;;;;2.20;2.00;;;;;;;;;;5054420;28;20197;-54
2023/07/12 02:36:24;;;;;;;2.42;2.22;;;;;;;;;;5053219;28;20183;-54
2023/07/12 02:38:50;;;;;;;2.28;2.10;;;;;;;;;;5050321;28;20217;-54
2023/07/12 02:41:17;;;;;;;2.58;2.10;;;;;;;;;;5047092;28;20183;-54
2023/07/12 02:43:43;;;;;;;2.15;1.90;;;;;;;;;;5049702;28;20214;-54
2023/07/12 02:46:09;;;;;;;2.28;2.08;;;;;;;;;;5047704;28;20183;-54
2023/07/12 02:48:35;;;;;;;2.30;2.10;;;;;;;;;;5038396;28;20175;-55
2023/07/12 02:51:01;;;;;;;2.22;1.90;;;;;;;;;;5054183;28;20175;-55
2023/07/12 02:53:28;;;;;;;1.70;1.60;;;;;;;;;;5054899;28;20654;-54
2023/07/12 02:55:54;;;;;;;2.05;1.95;;;;;;;;;;5054470;28;20211;-54
2023/07/12 02:58:21;;;;;;;1.80;1.70;;;;;;;;;;5049000;28;20588;-54
2023/07/12 03:00:47;;;;;;;2.70;1.83;;;;;;;;;;5053441;28;20175;-55
2023/07/12 03:03:13;;;;;;;3.35;2.00;;;;;;;;;;5050377;28;20724;-54
2023/07/12 03:05:39;;;;;;;2.22;1.92;;;;;;;;;;5057722;28;20178;-54
2023/07/12 03:08:06;;;;;;;2.33;1.70;;;;;;;;;;5073466;28;20185;-55
2023/07/12 03:10:32;;;;;;;2.65;2.25;;;;;;;;;;5074447;28;20183;-55
2023/07/12 03:12:58;;;;;;;2.00;1.80;;;;;;;;;;5074409;28;20492;-55
2023/07/12 03:15:24;;;;;;;2.15;1.90;;;;;;;;;;5073979;28;20206;-55
2023/07/12 03:17:50;;;;;;;2.13;1.70;;;;;;;;;;5068379;28;20436;-54
2023/07/12 03:20:16;;;;;;;2.17;1.98;;;;;;;;;;5054447;28;20205;-54
2023/07/12 03:22:42;;;;;;;2.13;1.92;;;;;;;;;;5051864;28;20241;-54
2023/07/12 03:25:08;;;;;;;2.03;1.85;;;;;;;;;;5074108;28;20297;-54
2023/07/12 03:27:33;;;;;;;1.88;1.77;;;;;;;;;;5074148;28;20182;-54
2023/07/12 03:29:59;;;;;;;1.95;1.75;;;;;;;;;;5073371;28;20178;-54
2023/07/12 03:32:25;;;;;;;2.10;1.90;;;;;;;;;;5074247;28;20182;-56
2023/07/12 03:34:52;;;;;;;2.03;1.88;;;;;;;;;;5072057;28;20509;-55
2023/07/12 03:37:18;;;;;;;2.20;1.90;;;;;;;;;;5053150;28;20207;-55
2023/07/12 03:39:44;;;;;;;2.08;1.90;;;;;;;;;;5051506;28;20218;-55
2023/07/12 03:42:09;;;;;;;1.58;1.48;;;;;;;;;;5070046;28;20178;-55
2023/07/12 03:44:36;;;;;;;1.67;1.58;;;;;;;;;;5073848;28;20225;-55
2023/07/12 03:47:02;;;;;;;1.98;1.83;;;;;;;;;;5077687;28;20174;-55
2023/07/12 03:49:29;;;;;;;2.00;1.90;;;;;;;;;;5065523;28;20269;-55
2023/07/12 03:51:55;;;;;;;1.60;1.50;;;;;;;;;;5057381;28;20180;-54
2023/07/12 03:54:21;;;;;;;2.30;1.60;;;;;;;;;;5057748;28;20186;-55
2023/07/12 03:56:47;;;;;;;2.10;1.90;;;;;;;;;;5055198;28;20301;-55
2023/07/12 03:59:13;;;;;;;1.70;1.60;;;;;;;;;;5056829;28;20194;-55
2023/07/12 04:01:39;;;;;;;1.80;1.70;;;;;;;;;;5057678;28;20186;-55
2023/07/12 04:04:06;;;;;;;2.10;1.60;;;;;;;;;;5050972;28;20281;-55
2023/07/12 04:06:32;;;;;;;1.95;1.83;;;;;;;;;;5050970;28;20271;-55
2023/07/12 04:08:58;;;;;;;2.08;1.90;;;;;;;;;;5057164;28;20470;-55
2023/07/12 04:11:26;;;;;;;1.77;1.67;;;;;;;;;;5056922;28;20171;-55
2023/07/12 04:13:52;;;;;;;2.10;1.77;;;;;;;;;;5057590;28;20207;-55
2023/07/12 04:16:18;;;;;;;1.80;1.70;;;;;;;;;;5057443;28;20577;-55
2023/07/12 04:18:44;;;;;;;1.48;1.38;;;;;;;;;;5056095;28;20186;-55
2023/07/12 04:21:10;;;;;;;1.55;1.45;;;;;;;;;;5054146;28;20253;-55
2023/07/12 04:23:36;;;;;;;2.17;1.90;;;;;;;;;;5056088;28;20211;-55
2023/07/12 04:26:03;;;;;;;2.33;1.88;;;;;;;;;;5057355;28;20317;-55
2023/07/12 04:28:29;;;;;;;1.77;1.65;;;;;;;;;;5054565;28;20267;-55
2023/07/12 04:30:55;;;;;;;1.63;1.52;;;;;;;;;;5057272;28;20183;-55
2023/07/12 04:33:22;;;;;;;2.35;1.80;;;;;;;;;;5056765;28;20198;-55
2023/07/12 04:35:47;;;;;;;1.92;1.73;;;;;;;;;;5056009;28;20214;-54
2023/07/12 04:38:13;;;;;;;1.70;1.60;;;;;;;;;;5055773;28;20210;-54
2023/07/12 04:40:39;;;;;;;1.60;1.50;;;;;;;;;;5053673;28;20179;-54
2023/07/12 04:43:05;;;;;;;2.08;1.50;;;;;;;;;;5057128;28;20183;-54
2023/07/12 04:45:31;;;;;;;1.60;1.50;;;;;;;;;;5055536;28;20478;-54
2023/07/12 04:47:57;;;;;;;1.45;1.35;;;;;;;;;;5055760;28;20183;-55
2023/07/12 04:50:23;;;;;;;1.42;1.33;;;;;;;;;;5055810;28;20183;-55
2023/07/12 04:52:49;;;;;;;1.60;1.50;;;;;;;;;;5070922;28;20541;-55
2023/07/12 04:55:20;;;;;;;2.10;1.70;;;;;;;;;;5057279;28;20225;-55
2023/07/12 04:57:46;;;;;;;2.15;1.50;;;;;;;;;;5055422;28;20215;-55
2023/07/12 05:00:13;;;;;;;1.98;1.67;;;;;;;;;;5056723;28;20179;-55
2023/07/12 05:02:39;;;;;;;1.65;1.30;;;;;;;;;;5051420;28;20225;-55
2023/07/12 05:05:05;;;;;;;3.67;1.80;;;;;;;;;;5056271;28;20475;-55
2023/07/12 05:07:31;;;;;;;1.45;1.35;;;;;;;;;;5056577;28;20602;-55
2023/07/12 05:09:57;;;;;;;1.52;1.42;;;;;;;;;;5054684;28;20262;-55
2023/07/12 05:12:23;;;;;;;1.58;1.48;;;;;;;;;;5056478;28;20224;-55
2023/07/12 05:14:49;;;;;;;1.48;1.38;;;;;;;;;;5056541;28;20514;-55
2023/07/12 05:17:15;;;;;;;1.58;1.48;;;;;;;;;;5055688;28;20179;-55
2023/07/12 05:19:41;;;;;;;2.03;1.70;;;;;;;;;;5044925;28;20186;-55
2023/07/12 05:22:07;;;;;;;1.42;1.30;;;;;;;;;;5064518;28;20181;-55
2023/07/12 05:24:33;;;;;;;1.77;1.60;;;;;;;;;;5075822;28;20351;-55
2023/07/12 05:26:59;;;;;;;1.40;1.30;;;;;;;;;;5071077;28;20286;-55
2023/07/12 05:29:25;;;;;;;1.50;1.10;;;;;;;;;;5055799;28;20652;-55
2023/07/12 05:31:51;;;;;;;1.55;1.45;;;;;;;;;;5056192;28;20207;-55
2023/07/12 05:34:17;;;;;;;1.75;1.65;;;;;;;;;;5052471;28;20257;-55
2023/07/12 05:36:43;;;;;;;1.52;1.42;;;;;;;;;;5054183;28;20187;-55
2023/07/12 05:39:11;;;;;;;1.50;1.40;;;;;;;;;;5055505;28;20863;-55
2023/07/12 05:41:37;;;;;;;1.48;1.38;;;;;;;;;;5055636;28;20205;-55
2023/07/12 05:44:03;;;;;;;1.33;1.23;;;;;;;;;;5055691;28;20629;-55
2023/07/12 05:46:29;;;;;;;1.55;1.30;;;;;;;;;;5054577;28;20183;-54
2023/07/12 05:48:55;;;;;;;1.27;1.17;;;;;;;;;;5054036;28;20628;-55
2023/07/12 05:51:21;;;;;;;1.23;1.13;;;;;;;;;;5049444;28;20187;-55
2023/07/12 05:53:47;;;;;;;2.08;1.35;;;;;;;;;;5074459;28;20232;-56
2023/07/12 05:56:13;;;;;;;1.30;1.20;;;;;;;;;;5064622;28;20182;-55
2023/07/12 05:58:39;;;;;;;2.15;1.63;;;;;;;;;;5055460;28;20179;-55
2023/07/12 06:01:05;;;;;;;1.10;0.93;;;;;;;;;;5048376;28;20721;-55
2023/07/12 06:03:32;;;;;;;1.55;1.38;;;;;;;;;;5049994;28;20191;-55
2023/07/12 06:05:58;;;;;;;1.20;1.10;;;;;;;;;;5051202;28;20229;-55
2023/07/12 06:08:25;;;;;;;2.28;1.30;;;;;;;;;;5049360;28;20298;-55
2023/07/12 06:10:51;;;;;;;1.60;1.30;;;;;;;;;;5051271;28;20242;-55
2023/07/12 06:13:17;;;;;;;1.55;1.45;;;;;;;;;;5055006;28;20179;-55
2023/07/12 06:15:43;;;;;;;1.45;1.10;;;;;;;;;;5054747;28;20187;-55
2023/07/12 06:18:09;;;;;;;1.30;1.20;;;;;;;;;;5054540;28;20180;-55
2023/07/12 06:20:34;;;;;;;1.42;1.33;;;;;;;;;;5052000;28;20188;-55
2023/07/12 06:23:01;;;;;;;1.88;1.30;;;;;;;;;;5070252;28;20219;-55
2023/07/12 06:25:26;;;;;;;1.20;1.10;;;;;;;;;;5052338;28;20606;-55
2023/07/12 06:27:52;;;;;;;1.35;1.25;;;;;;;;;;5053883;28;20175;-55
2023/07/12 06:30:18;;;;;;;1.30;1.20;;;;;;;;;;5051555;28;20218;-55
2023/07/12 06:32:45;;;;;;;1.40;1.30;;;;;;;;;;5053608;28;20185;-55
2023/07/12 06:35:10;;;;;;;1.70;1.50;;;;;;;;;;5054334;28;20258;-55
2023/07/12 06:37:37;;;;;;;1.35;1.25;;;;;;;;;;5054178;28;20290;-55
2023/07/12 06:40:05;;;;;;;1.23;1.13;;;;;;;;;;5052358;28;20211;-55
2023/07/12 06:42:31;;;;;;;0.98;0.98;;;;;;;;;;5049645;28;20195;-54
2023/07/12 06:44:56;;;;;;;1.50;1.33;;;;;;;;;;5053980;28;20207;-54
2023/07/12 06:47:22;;;;;;;1.30;1.10;;;;;;;;;;5046411;28;20176;-54
2023/07/12 06:49:48;;;;;;;1.67;1.38;;;;;;;;;;5052900;28;20547;-55
2023/07/12 06:52:14;;;;;;;1.33;1.23;;;;;;;;;;5062490;28;20190;-55
2023/07/12 06:54:40;;;;;;;1.35;1.25;;;;;;;;;;5073922;28;20530;-55
2023/07/12 06:57:06;;;;;;;1.00;0.98;;;;;;;;;;5055634;28;20197;-55
2023/07/12 06:59:32;;;;;;;1.00;1.00;;;;;;;;;;5053484;28;20201;-55
2023/07/12 07:01:58;;;;;;;0.98;0.98;;;;;;;;;;5049241;28;20183;-55
2023/07/12 07:04:24;;;;;;;1.08;0.98;;;;;;;;;;5054276;28;20257;-55
2023/07/12 07:06:50;;;;;;;1.20;1.10;;;;;;;;;;5053479;28;20277;-55
2023/07/12 07:09:16;;;;;;;1.33;1.13;;;;;;;;;;5053660;28;20542;-55
2023/07/12 07:11:42;;;;;;;1.33;1.23;;;;;;;;;;5054172;28;20183;-55
2023/07/12 07:14:08;;;;;;;1.27;1.10;;;;;;;;;;5053484;28;20185;-55
2023/07/12 07:16:34;;;;;;;1.08;0.98;;;;;;;;;;5054354;28;20187;-55
2023/07/12 07:19:00;;;;;;;1.45;1.10;;;;;;;;;;5057179;28;20174;-55
2023/07/12 07:21:26;;;;;;;1.38;1.27;;;;;;;;;;5071363;28;20210;-55
2023/07/12 07:23:52;;;;;;;1.30;1.10;;;;;;;;;;5053364;28;20592;-54
2023/07/12 07:26:18;;;;;;;1.38;1.10;;;;;;;;;;5054134;28;20221;-55
2023/07/12 07:28:44;;;;;;;1.48;1.25;;;;;;;;;;5053883;28;20405;-55
2023/07/12 07:31:11;;;;;;;1.83;1.20;;;;;;;;;;5047640;28;20186;-56
2023/07/12 07:33:39;;;;;;;1.15;1.10;;;;;;;;;;5054169;28;20179;-55
2023/07/12 07:36:06;;;;;;;1.15;1.05;;;;;;;;;;5052364;28;20179;-56
2023/07/12 07:38:32;;;;;;;1.88;1.10;;;;;;;;;;5053430;28;20182;-54
2023/07/12 07:40:57;;;;;;;1.25;1.15;;;;;;;;;;5047519;28;20179;-55
2023/07/12 07:43:23;;;;;;;1.50;1.40;;;;;;;;;;5051935;28;20237;-55
2023/07/12 07:45:49;;;;;;;1.10;1.00;;;;;;;;;;5053870;28;20179;-55
2023/07/12 07:48:15;;;;;;;2.17;1.10;;;;;;;;;;5051809;28;20195;-55
2023/07/12 07:50:42;;;;;;;1.30;1.20;;;;;;;;;;5053445;28;20193;-55
2023/07/12 07:53:08;;;;;;;2.17;1.25;;;;;;;;;;5070305;28;20182;-55
2023/07/12 07:55:34;;;;;;;1.10;1.05;;;;;;;;;;5070546;28;20187;-55
2023/07/12 07:58:00;;;;;;;1.40;1.30;;;;;;;;;;5052828;28;20253;-55
2023/07/12 08:00:26;;;;;;;1.02;1.00;;;;;;;;;;5048590;28;20550;-55
2023/07/12 08:02:53;;;;;;;1.33;1.15;;;;;;;;;;5044002;28;20221;-55
2023/07/12 08:05:19;;;;;;;1.20;1.10;;;;;;;;;;5050435;28;20298;-55
2023/07/12 08:07:46;;;;;;;2.45;1.20;;;;;;;;;;5052037;28;20210;-56
2023/07/12 08:10:14;;;;;;;1.58;1.48;;;;;;;;;;5053191;28;20187;-55
2023/07/12 08:12:40;;;;;;;1.65;1.00;;;;;;;;;;5053640;28;20182;-55
2023/07/12 08:15:06;;;;;;;1.08;1.02;;;;;;;;;;5053976;28;20182;-55
2023/07/12 08:17:32;;;;;;;1.45;1.27;;;;;;;;;;5050674;28;20179;-55
2023/07/12 08:19:58;;;;;;;1.38;1.17;;;;;;;;;;5052556;28;20655;-55
2023/07/12 08:22:25;;;;;;;1.20;1.10;;;;;;;;;;5059746;28;20186;-55
2023/07/12 08:24:51;;;;;;;1.65;1.02;;;;;;;;;;5067190;28;20207;-55
2023/07/12 08:27:16;;;;;;;0.90;0.90;;;;;;;;;;5051027;28;20187;-55
2023/07/12 08:29:43;;;;;;;1.38;1.15;;;;;;;;;;5052891;28;20229;-55
2023/07/12 08:32:09;;;;;;;1.20;1.10;;;;;;;;;;5052213;28;20191;-55
2023/07/12 08:34:35;;;;;;;1.13;1.02;;;;;;;;;;5056849;28;20576;-55
2023/07/12 08:37:02;;;;;;;1.00;1.00;;;;;;;;;;5053482;28;20195;-55
2023/07/12 08:39:27;;;;;;;1.35;1.25;;;;;;;;;;5056314;28;20215;-55
2023/07/12 08:41:53;;;;;;;1.30;1.20;;;;;;;;;;5053538;28;20211;-55
2023/07/12 08:44:20;;;;;;;1.30;1.20;;;;;;;;;;5056516;28;20207;-56
2023/07/12 08:46:49;;;;;;;1.33;1.15;;;;;;;;;;5053607;28;20195;-55
2023/07/12 08:49:16;;;;;;;1.30;1.20;;;;;;;;;;5056395;28;20183;-56
2023/07/12 08:51:42;;;;;;;1.15;1.05;;;;;;;;;;5059509;28;20193;-55
2023/07/12 08:54:16;;;;;;;1.10;1.02;;;;;;;;;;5066652;28;20179;-55
2023/07/12 08:56:43;;;;;;;1.17;1.08;;;;;;;;;;5055986;28;20175;-55
2023/07/12 08:59:11;;;;;;;1.20;1.10;;;;;;;;;;5056118;28;20570;-54
2023/07/12 09:01:47;;;;;;;1.25;1.15;;;;;;;;;;5054334;28;20313;-55
2023/07/12 09:04:15;;;;;;;1.10;1.10;;;;;;;;;;5051904;28;20611;-55
2023/07/12 09:06:41;;;;;;;1.65;1.10;;;;;;;;;;5056601;28;20539;-55
2023/07/12 09:09:09;;;;;;;1.48;1.05;;;;;;;;;;5055671;28;20183;-55
2023/07/12 09:11:36;;;;;;;1.60;1.27;;;;;;;;;;5052264;28;20547;-55
2023/07/12 09:14:02;;;;;;;1.10;1.10;;;;;;;;;;5050555;28;20270;-55
2023/07/12 09:16:30;;;;;;;1.48;1.15;;;;;;;;;;5048986;28;20185;-55
2023/07/12 09:18:58;;;;;;;1.30;1.20;;;;;;;;;;5052281;28;20442;-55
2023/07/12 09:21:25;;;;;;;1.23;1.10;;;;;;;;;;5052768;28;20187;-56
2023/07/12 09:23:53;;;;;;;1.40;1.20;;;;;;;;;;5054485;28;20207;-55
2023/07/12 09:26:26;;;;;;;1.08;1.02;;;;;;;;;;5061365;28;20178;-55
2023/07/12 09:29:18;;;;;;;1.33;1.23;;;;;;;;;;5048009;28;20180;-55
2023/07/12 09:31:46;;;;;;;1.30;1.20;;;;;;;;;;5044705;28;20262;-56
2023/07/12 09:34:23;;;;;;;1.60;1.50;;;;;;;;;;5063719;28;20477;-56
2023/07/12 09:36:56;;;;;;;1.27;1.17;;;;;;;;;;5060981;28;20807;-55
2023/07/12 09:39:22;;;;;;;1.55;1.23;;;;;;;;;;5058238;28;20193;-55
2023/07/12 09:41:50;;;;;;;1.55;1.45;;;;;;;;;;5046725;28;20188;-55
2023/07/12 09:44:16;;;;;;;1.08;1.05;;;;;;;;;;5051095;28;20226;-56
2023/07/12 09:46:45;;;;;;;1.20;1.10;;;;;;;;;;5055936;28;20175;-56
2023/07/12 09:49:19;;;;;;;2.17;1.40;;;;;;;;;;5061620;28;20524;-56
2023/07/12 09:51:53;;;;;;;1.27;1.17;;;;;;;;;;5067743;28;20503;-55
2023/07/12 09:54:31;;;;;;;1.30;1.20;;;;;;;;;;5051144;28;20194;-55
2023/07/12 09:57:01;;;;;;;1.63;1.10;;;;;;;;;;5068397;28;20243;-55
2023/07/12 09:59:37;;;;;;;1.70;1.40;;;;;;;;;;5050067;28;20186;-56
2023/07/12 10:02:09;;;;;;;1.30;1.20;;;;;;;;;;5053668;28;20558;-56
2023/07/12 10:04:58;;;;;;;1.10;1.10;;;;;;;;;;5063378;28;20240;-55
2023/07/12 10:07:33;;;;;;;1.23;1.00;;;;;;;;;;5049175;28;20206;-56
2023/07/12 10:09:59;;;;;;;1.58;1.48;;;;;;;;;;5059859;28;20219;-56
2023/07/12 10:12:43;;;;;;;1.95;1.40;;;;;;;;;;5049915;28;20190;-55
2023/07/12 10:15:13;;;;;;;1.30;1.20;;;;;;;;;;5054591;28;20183;-55
2023/07/12 10:17:41;;;;;;;1.50;1.40;;;;;;;;;;5047426;28;20563;-56
2023/07/12 10:20:13;;;;;;;1.60;1.48;;;;;;;;;;5045210;28;20285;-55
2023/07/12 10:22:40;;;;;;;1.30;1.20;;;;;;;;;;5047236;28;20178;-56
2023/07/12 10:25:27;;;;;;;1.60;1.50;;;;;;;;;;5059434;28;20208;-55
2023/07/12 10:27:57;;;;;;;1.40;1.30;;;;;;;;;;5057045;28;20183;-55
2023/07/12 10:30:24;;;;;;;1.13;1.10;;;;;;;;;;5050543;28;20186;-55
2023/07/12 10:32:54;;;;;;;1.30;1.20;;;;;;;;;;5059335;28;20188;-55
2023/07/12 10:35:20;;;;;;;1.48;1.38;;;;;;;;;;5053180;28;20182;-55
2023/07/12 10:37:53;;;;;;;2.40;1.40;;;;;;;;;;5037565;28;20465;-56
2023/07/12 10:40:33;;;;;;;1.40;1.20;;;;;;;;;;5047301;28;20487;-55
2023/07/12 10:43:01;;;;;;;1.27;1.20;;;;;;;;;;5045950;28;20184;-55
2023/07/12 10:48:29;;;;;;;1.65;1.30;;;;;;;;;;5040039;28;20594;-55
2023/07/12 10:51:14;;;;;;;1.23;1.13;;;;;;;;;;5047548;28;20186;-55
2023/07/12 10:53:51;;;;;;;1.30;1.20;;;;;;;;;;5059586;28;20182;-56
2023/07/12 10:56:17;;;;;;;1.50;1.40;;;;;;;;;;5046004;28;20185;-55
2023/07/12 10:58:47;;;;;;;1.15;1.05;;;;;;;;;;5054314;28;20254;-55
2023/07/12 11:01:32;;;;;;;2.20;1.45;;;;;;;;;;5050178;28;20533;-56
2023/07/12 11:04:08;;;;;;;1.35;1.25;;;;;;;;;;5051440;28;20216;-56
2023/07/12 11:06:34;;;;;;;2.05;1.30;;;;;;;;;;5054066;28;20261;-56
2023/07/12 11:09:01;;;;;;;1.02;1.02;;;;;;;;;;5070670;28;20265;-56
2023/07/12 11:11:29;;;;;;;1.40;1.30;;;;;;;;;;5058918;28;20220;-56
2023/07/12 11:14:21;;;;;;;1.38;1.25;;;;;;;;;;5054364;28;20187;-55
2023/07/12 11:16:52;;;;;;;1.50;1.27;;;;;;;;;;5045787;28;20188;-55
2023/07/12 11:19:37;;;;;;;1.75;1.63;;;;;;;;;;5056177;28;20244;-54
2023/07/12 11:22:10;;;;;;;1.42;1.33;;;;;;;;;;5074308;28;20182;-55
2023/07/12 11:24:41;;;;;;;1.20;1.10;;;;;;;;;;5073474;28;20206;-55
2023/07/12 11:27:25;;;;;;;1.77;1.23;;;;;;;;;;5074053;28;20254;-55
2023/07/12 11:29:53;;;;;;;1.17;1.00;;;;;;;;;;5073936;28;20503;-55
2023/07/12 11:32:23;;;;;;;1.30;1.20;;;;;;;;;;5060213;28;20447;-55
2023/07/12 11:34:53;;;;;;;1.30;1.20;;;;;;;;;;5054020;28;20216;-55
2023/07/12 11:37:31;;;;;;;1.30;1.20;;;;;;;;;;5053868;28;21051;-55
2023/07/12 11:39:57;;;;;;;1.20;1.10;;;;;;;;;;5053428;28;20183;-56
2023/07/12 11:42:25;;;;;;;1.38;1.27;;;;;;;;;;5051343;28;20220;-56
2023/07/12 11:45:12;;;;;;;1.55;1.30;;;;;;;;;;5053836;28;20199;-56
2023/07/12 11:47:41;;;;;;;1.23;1.13;;;;;;;;;;5049084;28;20206;-55
2023/07/12 11:50:09;;;;;;;1.02;1.02;;;;;;;;;;5053940;28;20171;-55
2023/07/12 11:52:35;;;;;;;1.20;1.10;;;;;;;;;;5052833;28;20183;-55
2023/07/12 11:55:04;;;;;;;1.33;1.23;;;;;;;;;;5053849;28;20634;-55
2023/07/12 11:57:38;;;;;;;1.30;1.20;;;;;;;;;;5052051;28;20237;-58
2023/07/12 12:00:15;;;;;;;1.40;1.30;;;;;;;;;;5053618;28;20179;-56
2023/07/12 12:02:41;;;;;;;1.60;1.30;;;;;;;;;;5049184;28;20178;-55
2023/07/12 12:05:16;;;;;;;1.30;1.20;;;;;;;;;;5053818;28;20199;-56
2023/07/12 12:07:42;;;;;;;1.40;1.30;;;;;;;;;;5052933;28;20225;-56
2023/07/12 12:10:18;;;;;;;1.20;1.10;;;;;;;;;;5057461;28;20569;-56
2023/07/12 12:12:47;;;;;;;1.08;1.08;;;;;;;;;;5052779;28;20668;-56
2023/07/12 12:15:31;;;;;;;1.38;1.27;;;;;;;;;;5051172;28;20601;-56
2023/07/12 12:17:57;;;;;;;1.27;1.17;;;;;;;;;;5054470;28;20191;-56
2023/07/12 12:20:32;;;;;;;1.50;1.40;;;;;;;;;;5054159;28;20269;-56
2023/07/12 12:23:19;;;;;;;1.52;1.42;;;;;;;;;;5072186;28;20572;-56
2023/07/12 12:25:51;;;;;;;1.50;1.40;;;;;;;;;;5058351;28;20569;-56
2023/07/12 12:28:27;;;;;;;1.15;1.15;;;;;;;;;;5056889;28;20176;-56
2023/07/12 12:31:11;;;;;;;2.47;1.30;;;;;;;;;;5056690;28;20175;-56
2023/07/12 12:33:43;;;;;;;1.15;1.10;;;;;;;;;;5055741;28;20225;-56
2023/07/12 12:36:17;;;;;;;1.33;1.23;;;;;;;;;;5051200;28;20435;-56
2023/07/12 12:38:43;;;;;;;1.20;1.10;;;;;;;;;;5056791;28;20264;-56
2023/07/12 12:41:16;;;;;;;0.98;0.98;;;;;;;;;;5057102;28;20205;-55
2023/07/12 12:43:55;;;;;;;1.23;1.20;;;;;;;;;;5057439;28;20258;-56
2023/07/12 12:46:21;;;;;;;1.33;1.23;;;;;;;;;;5055292;28;20448;-55
2023/07/12 12:48:49;;;;;;;1.52;1.42;;;;;;;;;;5050580;28;20268;-56
2023/07/12 12:51:15;;;;;;;1.17;1.08;;;;;;;;;;5056592;28;20525;-56
2023/07/12 12:53:41;;;;;;;1.08;1.08;;;;;;;;;;5056929;28;20215;-56
2023/07/12 12:56:11;;;;;;;1.30;1.20;;;;;;;;;;5055565;28;20491;-56
2023/07/12 12:58:43;;;;;;;1.25;1.15;;;;;;;;;;5056245;28;20167;-56
2023/07/12 13:01:19;;;;;;;1.00;1.00;;;;;;;;;;5052170;28;20483;-55
2023/07/12 13:03:45;;;;;;;1.00;1.00;;;;;;;;;;5053879;28;20214;-56
2023/07/12 13:06:17;;;;;;;1.27;1.17;;;;;;;;;;5056589;28;20266;-56
2023/07/12 13:08:42;;;;;;;1.38;1.27;;;;;;;;;;5055528;28;20175;-56
2023/07/12 13:11:09;;;;;;;1.20;1.10;;;;;;;;;;5056441;28;20171;-56
2023/07/12 13:13:34;;;;;;;1.30;1.20;;;;;;;;;;5056410;28;20179;-56
2023/07/12 13:16:00;;;;;;;1.35;1.25;;;;;;;;;;5056636;28;20175;-56
2023/07/12 13:18:28;;;;;;;1.33;1.10;;;;;;;;;;5057800;28;20187;-56
2023/07/12 13:20:55;;;;;;;1.40;1.30;;;;;;;;;;5076461;28;20186;-57
2023/07/12 13:23:23;;;;;;;1.20;1.15;;;;;;;;;;5075988;28;20196;-55
2023/07/12 13:25:51;;;;;;;1.10;1.00;;;;;;;;;;5059806;28;20203;-55
2023/07/12 13:28:17;;;;;;;1.25;1.15;;;;;;;;;;5048498;28;20187;-55
2023/07/12 13:30:42;;;;;;;1.30;1.20;;;;;;;;;;5056136;28;20198;-55
2023/07/12 13:33:10;;;;;;;1.23;1.13;;;;;;;;;;5056306;28;20198;-55
2023/07/12 13:35:36;;;;;;;1.05;1.00;;;;;;;;;;5049446;28;20552;-55
2023/07/12 13:38:02;;;;;;;1.17;1.08;;;;;;;;;;5055377;28;20205;-55
2023/07/12 13:40:28;;;;;;;1.00;1.00;;;;;;;;;;5052393;28;20270;-55
2023/07/12 13:42:55;;;;;;;0.85;0.85;;;;;;;;;;5047309;28;20499;-55
2023/07/12 13:45:21;;;;;;;1.08;0.98;;;;;;;;;;5046207;28;20203;-56
2023/07/12 13:47:47;;;;;;;1.00;1.00;;;;;;;;;;5055326;28;20179;-55
2023/07/12 13:50:17;;;;;;;1.20;1.10;;;;;;;;;;5055302;28;20538;-55
2023/07/12 13:52:43;;;;;;;0.98;0.95;;;;;;;;;;5068842;28;20193;-57
2023/07/12 13:55:13;;;;;;;1.23;1.13;;;;;;;;;;5050922;28;20554;-56
2023/07/12 13:57:39;;;;;;;1.50;1.40;;;;;;;;;;5054869;28;20179;-56
2023/07/12 14:00:11;;;;;;;1.27;1.20;;;;;;;;;;5053278;28;20426;-55
2023/07/12 14:02:37;;;;;;;1.30;1.20;;;;;;;;;;5051524;28;20187;-55
2023/07/12 14:05:04;;;;;;;2.25;1.10;;;;;;;;;;5054570;28;20249;-56
2023/07/12 14:07:32;;;;;;;2.65;1.13;;;;;;;;;;5046900;28;20262;-56
2023/07/12 14:09:59;;;;;;;1.00;1.00;;;;;;;;;;5061701;28;20202;-56
2023/07/12 14:12:26;;;;;;;1.17;1.00;;;;;;;;;;5039306;28;20214;-55
2023/07/12 14:14:52;;;;;;;0.90;0.90;;;;;;;;;;5059124;28;20183;-55
2023/07/12 14:17:19;;;;;;;0.98;0.98;;;;;;;;;;5040104;28;20188;-55
2023/07/12 14:19:46;;;;;;;1.08;1.05;;;;;;;;;;5056370;28;20186;-55
2023/07/12 14:22:16;;;;;;;1.10;1.00;;;;;;;;;;5040974;28;20202;-56
2023/07/12 14:24:42;;;;;;;1.00;1.00;;;;;;;;;;5041679;28;20253;-56
2023/07/12 14:27:23;;;;;;;1.02;1.00;;;;;;;;;;5038616;28;20266;-56
2023/07/12 14:29:52;;;;;;;1.00;0.98;;;;;;;;;;5042806;28;20179;-56
2023/07/12 14:32:18;;;;;;;1.30;0.93;;;;;;;;;;5040220;28;20262;-55
2023/07/12 14:34:45;;;;;;;1.30;1.20;;;;;;;;;;5046870;28;20267;-56
2023/07/12 14:37:12;;;;;;;1.30;1.17;;;;;;;;;;5046751;28;20408;-56
2023/07/12 14:39:38;;;;;;;1.13;1.02;;;;;;;;;;5052696;28;20628;-56
2023/07/12 14:42:04;;;;;;;0.90;0.90;;;;;;;;;;5036363;28;20199;-56
2023/07/12 14:44:30;;;;;;;1.30;1.05;;;;;;;;;;5057014;28;20239;-57
2023/07/12 14:46:56;;;;;;;1.00;1.00;;;;;;;;;;5056836;28;20190;-56
2023/07/12 14:49:22;;;;;;;1.25;1.15;;;;;;;;;;5047240;28;20483;-56
2023/07/12 14:51:48;;;;;;;0.90;0.90;;;;;;;;;;5056794;28;20218;-56